LDZL weather

Lučko Airport
Zagreb, Zagreb (city), Croatia

Public forecast

Using degrees Celsius for public forecast. Weather courtesy of forecast.io.

Closest aviation weather report (METAR) to Lučko Airport

Closest report is Zagreb Airport, 9.3 nm (17.3 km) E. Retrieved 2020/05/26 19:30 UTC (0 seconds ago):

LDZA 261930Z 01004KT 330V040 CAVOK 14/06 Q1029 TEMPO 04012KT

Closest aviation forecast (TAF) to Lučko Airport

Closest forecast is Zagreb Airport, 9.3 nm (17.3 km) E. Retrieved 2020/05/26 18:27 UTC (46 minutes ago):

TAF LDZA 261725Z 2618/2718 04012KT CAVOK TX23/2713Z TN11/2704Z PROB30 TEMPO 2620/2706 02015G25KT